Portada
METAR-TAF:

METAR-TAF

Aeroports :

Gloucester, Anglaterra

latitud: 51-54N, longitud: 002-10W, altitud: 29 m

Observació

L'informe es va fer fa 36 minuts, a les 17:20 UTC
Vent 4 kt del Oest/Sud-Oest
Temperatura 4°C
Humitat 87%
Pressió 998 hPa
Visibilitat 10 km o més
Escasses núvols a una alçada de 3800 ft

METAR: EGBJ 281720Z 25004KT 9999 FEW038 04/02 Q0998

Hora: 17:56 (17:56 UTC)

Pronòstic

L'informe es va fer fa 52 minuts, a les 17:04 UTC
Pronòstic vàlid del 28 a les 18 UTC al 28 a les 20 UTC
Vent 7 kt del Oest/Sud-Oest
Visibilitat 10 km o més
Núvols disperses a una alçada de 2500 ft
Probabilitat 30% :
Temporalment
l' 28 a les 18 UTC al 28 a les 20 UTC
Vent 15 kt del Oest amb ràfegues de 25 kt
Visibilitat: 7000 m
xàfecs de pluja

TAF: EGBJ 281704Z 2818/2820 24007KT 9999 SCT025 PROB30 TEMPO 2818/2820 26015G25KT 7000 SHRA

Observacions i pronòstics meteorològics de més de 4000 aeroports (METAR i TAF).

Les estacions disponibles són els punts grocs i vermells al mapa.

Posi el ratolí al punt desitjat per veure el nom de l'estació.

Feu clic per veure les observacions i els pronòstics meteorològics.

Per canviar el mapa: feu clic els botons verds amb una creu de color negre per apropar; al botó verd amb un guió per allunyar la imatge; o en les fletxes verdes per a mapes adjacents.


METAR-TAF: